sensor_id;sensor_type;location;lat;lon;timestamp;P1;durP1;ratioP1;P2;durP2;ratioP2
22632;SDS011;11483;55.828;37.488;2023-06-26T00:00:42;26.00;;;12.40;;
22632;SDS011;11483;55.828;37.488;2023-06-26T00:03:08;28.15;;;11.85;;
22632;SDS011;11483;55.828;37.488;2023-06-26T00:05:34;25.17;;;10.88;;
22632;SDS011;11483;55.828;37.488;2023-06-26T00:08:00;22.77;;;10.40;;
22632;SDS011;11483;55.828;37.488;2023-06-26T00:10:26;22.85;;;11.05;;
22632;SDS011;11483;55.828;37.488;2023-06-26T00:12:53;23.33;;;10.00;;
22632;SDS011;11483;55.828;37.488;2023-06-26T00:15:19;26.10;;;11.05;;
22632;SDS011;11483;55.828;37.488;2023-06-26T00:17:45;22.17;;;9.88;;
22632;SDS011;11483;55.828;37.488;2023-06-26T00:20:11;23.27;;;10.82;;
22632;SDS011;11483;55.828;37.488;2023-06-26T00:22:37;35.80;;;11.02;;
22632;SDS011;11483;55.828;37.488;2023-06-26T00:25:06;26.10;;;11.63;;
22632;SDS011;11483;55.828;37.488;2023-06-26T00:27:32;24.33;;;9.90;;
22632;SDS011;11483;55.828;37.488;2023-06-26T00:29:58;26.30;;;11.73;;
22632;SDS011;11483;55.828;37.488;2023-06-26T00:32:24;23.83;;;10.38;;
22632;SDS011;11483;55.828;37.488;2023-06-26T00:34:50;22.02;;;10.93;;
22632;SDS011;11483;55.828;37.488;2023-06-26T00:37:17;28.40;;;10.90;;
22632;SDS011;11483;55.828;37.488;2023-06-26T00:39:43;27.17;;;10.85;;
22632;SDS011;11483;55.828;37.488;2023-06-26T00:42:08;24.77;;;10.27;;
22632;SDS011;11483;55.828;37.488;2023-06-26T00:44:34;27.55;;;10.80;;
22632;SDS011;11483;55.828;37.488;2023-06-26T00:47:00;22.60;;;10.05;;
22632;SDS011;11483;55.828;37.488;2023-06-26T00:49:26;28.77;;;10.70;;
22632;SDS011;11483;55.828;37.488;2023-06-26T00:51:53;18.45;;;10.02;;
22632;SDS011;11483;55.828;37.488;2023-06-26T00:54:19;20.90;;;10.43;;
22632;SDS011;11483;55.828;37.488;2023-06-26T00:56:47;23.77;;;11.23;;
22632;SDS011;11483;55.828;37.488;2023-06-26T00:59:13;21.55;;;11.00;;
22632;SDS011;11483;55.828;37.488;2023-06-26T01:01:39;25.33;;;11.98;;
22632;SDS011;11483;55.828;37.488;2023-06-26T01:04:05;34.08;;;10.80;;
22632;SDS011;11483;55.828;37.488;2023-06-26T01:06:31;24.17;;;11.75;;
22632;SDS011;11483;55.828;37.488;2023-06-26T01:09:04;21.13;;;10.57;;
22632;SDS011;11483;55.828;37.488;2023-06-26T01:11:30;28.13;;;12.70;;
22632;SDS011;11483;55.828;37.488;2023-06-26T01:13:56;26.88;;;12.20;;
22632;SDS011;11483;55.828;37.488;2023-06-26T01:16:25;38.15;;;12.43;;
22632;SDS011;11483;55.828;37.488;2023-06-26T01:18:52;27.10;;;12.38;;
22632;SDS011;11483;55.828;37.488;2023-06-26T01:21:19;31.33;;;12.63;;
22632;SDS011;11483;55.828;37.488;2023-06-26T01:26:31;33.35;;;14.38;;
22632;SDS011;11483;55.828;37.488;2023-06-26T01:29:00;33.97;;;14.82;;
22632;SDS011;11483;55.828;37.488;2023-06-26T01:31:28;27.67;;;14.15;;
22632;SDS011;11483;55.828;37.488;2023-06-26T01:33:56;31.73;;;14.35;;
22632;SDS011;11483;55.828;37.488;2023-06-26T01:36:24;31.17;;;13.65;;
22632;SDS011;11483;55.828;37.488;2023-06-26T01:38:50;32.25;;;13.05;;
22632;SDS011;11483;55.828;37.488;2023-06-26T01:41:17;35.00;;;15.60;;
22632;SDS011;11483;55.828;37.488;2023-06-26T01:48:59;28.42;;;14.50;;
22632;SDS011;11483;55.828;37.488;2023-06-26T01:51:41;40.45;;;14.07;;
22632;SDS011;11483;55.828;37.488;2023-06-26T01:54:17;27.92;;;15.07;;
22632;SDS011;11483;55.828;37.488;2023-06-26T01:56:48;34.60;;;15.15;;
22632;SDS011;11483;55.828;37.488;2023-06-26T01:59:15;34.13;;;15.73;;
22632;SDS011;11483;55.828;37.488;2023-06-26T02:01:44;31.23;;;15.55;;
22632;SDS011;11483;55.828;37.488;2023-06-26T02:04:09;33.60;;;14.75;;
22632;SDS011;11483;55.828;37.488;2023-06-26T02:06:35;35.60;;;16.90;;
22632;SDS011;11483;55.828;37.488;2023-06-26T02:09:01;39.28;;;15.48;;
22632;SDS011;11483;55.828;37.488;2023-06-26T02:11:27;30.98;;;15.27;;
22632;SDS011;11483;55.828;37.488;2023-06-26T02:13:53;32.33;;;16.88;;
22632;SDS011;11483;55.828;37.488;2023-06-26T02:16:19;42.47;;;18.08;;
22632;SDS011;11483;55.828;37.488;2023-06-26T02:18:44;33.97;;;15.60;;
22632;SDS011;11483;55.828;37.488;2023-06-26T02:21:10;33.72;;;16.13;;
22632;SDS011;11483;55.828;37.488;2023-06-26T02:23:37;31.02;;;16.23;;
22632;SDS011;11483;55.828;37.488;2023-06-26T02:26:03;40.30;;;16.67;;
22632;SDS011;11483;55.828;37.488;2023-06-26T02:28:28;28.83;;;14.77;;
22632;SDS011;11483;55.828;37.488;2023-06-26T02:30:56;27.83;;;14.90;;
22632;SDS011;11483;55.828;37.488;2023-06-26T02:33:22;35.38;;;16.13;;
22632;SDS011;11483;55.828;37.488;2023-06-26T02:35:48;39.30;;;18.95;;
22632;SDS011;11483;55.828;37.488;2023-06-26T02:38:16;47.30;;;19.77;;
22632;SDS011;11483;55.828;37.488;2023-06-26T02:40:42;42.00;;;19.85;;
22632;SDS011;11483;55.828;37.488;2023-06-26T02:43:08;41.33;;;18.67;;
22632;SDS011;11483;55.828;37.488;2023-06-26T02:45:34;40.63;;;18.67;;
22632;SDS011;11483;55.828;37.488;2023-06-26T02:47:59;40.70;;;17.60;;
22632;SDS011;11483;55.828;37.488;2023-06-26T02:50:25;41.10;;;16.92;;
22632;SDS011;11483;55.828;37.488;2023-06-26T02:52:51;39.13;;;16.45;;
22632;SDS011;11483;55.828;37.488;2023-06-26T02:55:18;38.65;;;17.38;;
22632;SDS011;11483;55.828;37.488;2023-06-26T02:57:45;43.70;;;18.42;;
22632;SDS011;11483;55.828;37.488;2023-06-26T03:00:11;40.97;;;18.02;;
22632;SDS011;11483;55.828;37.488;2023-06-26T03:02:38;54.88;;;21.63;;
22632;SDS011;11483;55.828;37.488;2023-06-26T03:05:04;55.63;;;20.80;;
22632;SDS011;11483;55.828;37.488;2023-06-26T03:07:30;48.05;;;22.45;;
22632;SDS011;11483;55.828;37.488;2023-06-26T03:09:56;46.95;;;21.73;;
22632;SDS011;11483;55.828;37.488;2023-06-26T03:12:22;52.97;;;22.20;;
22632;SDS011;11483;55.828;37.488;2023-06-26T03:14:47;65.07;;;21.27;;
22632;SDS011;11483;55.828;37.488;2023-06-26T03:17:13;50.85;;;21.25;;
22632;SDS011;11483;55.828;37.488;2023-06-26T03:19:39;49.97;;;21.50;;
22632;SDS011;11483;55.828;37.488;2023-06-26T03:22:05;49.30;;;22.00;;
22632;SDS011;11483;55.828;37.488;2023-06-26T03:24:31;47.50;;;19.33;;
22632;SDS011;11483;55.828;37.488;2023-06-26T03:26:57;45.92;;;20.20;;
22632;SDS011;11483;55.828;37.488;2023-06-26T03:29:22;43.42;;;19.67;;
22632;SDS011;11483;55.828;37.488;2023-06-26T03:31:48;43.20;;;20.52;;
22632;SDS011;11483;55.828;37.488;2023-06-26T03:34:14;46.92;;;19.55;;
22632;SDS011;11483;55.828;37.488;2023-06-26T03:36:40;44.55;;;21.00;;
22632;SDS011;11483;55.828;37.488;2023-06-26T03:39:06;49.38;;;19.15;;
22632;SDS011;11483;55.828;37.488;2023-06-26T03:41:32;41.58;;;19.95;;
22632;SDS011;11483;55.828;37.488;2023-06-26T03:43:58;46.17;;;20.30;;
22632;SDS011;11483;55.828;37.488;2023-06-26T03:46:25;44.72;;;20.67;;
22632;SDS011;11483;55.828;37.488;2023-06-26T03:48:51;50.22;;;20.05;;
22632;SDS011;11483;55.828;37.488;2023-06-26T03:51:17;44.63;;;19.13;;
22632;SDS011;11483;55.828;37.488;2023-06-26T03:53:43;50.05;;;20.10;;
22632;SDS011;11483;55.828;37.488;2023-06-26T03:56:08;46.33;;;21.10;;
22632;SDS011;11483;55.828;37.488;2023-06-26T03:58:34;38.10;;;18.77;;
22632;SDS011;11483;55.828;37.488;2023-06-26T04:01:00;45.15;;;21.17;;
22632;SDS011;11483;55.828;37.488;2023-06-26T04:03:26;53.15;;;20.67;;
22632;SDS011;11483;55.828;37.488;2023-06-26T04:05:52;41.83;;;18.55;;
22632;SDS011;11483;55.828;37.488;2023-06-26T04:08:18;42.88;;;19.40;;
22632;SDS011;11483;55.828;37.488;2023-06-26T04:10:44;39.33;;;18.67;;
22632;SDS011;11483;55.828;37.488;2023-06-26T04:13:10;44.08;;;18.45;;
22632;SDS011;11483;55.828;37.488;2023-06-26T04:15:37;39.35;;;18.10;;
22632;SDS011;11483;55.828;37.488;2023-06-26T04:18:02;40.92;;;18.35;;
22632;SDS011;11483;55.828;37.488;2023-06-26T04:20:29;41.45;;;18.20;;
22632;SDS011;11483;55.828;37.488;2023-06-26T04:22:55;42.28;;;17.58;;
22632;SDS011;11483;55.828;37.488;2023-06-26T04:25:21;38.33;;;17.00;;
22632;SDS011;11483;55.828;37.488;2023-06-26T04:27:47;38.75;;;16.92;;
22632;SDS011;11483;55.828;37.488;2023-06-26T04:30:13;43.88;;;16.75;;
22632;SDS011;11483;55.828;37.488;2023-06-26T04:32:39;32.22;;;15.68;;
22632;SDS011;11483;55.828;37.488;2023-06-26T04:35:05;44.33;;;15.95;;
22632;SDS011;11483;55.828;37.488;2023-06-26T04:37:31;29.02;;;13.75;;
22632;SDS011;11483;55.828;37.488;2023-06-26T04:39:57;30.70;;;12.85;;
22632;SDS011;11483;55.828;37.488;2023-06-26T04:42:23;22.50;;;10.75;;
22632;SDS011;11483;55.828;37.488;2023-06-26T04:44:49;27.17;;;11.93;;
22632;SDS011;11483;55.828;37.488;2023-06-26T04:47:15;23.15;;;10.68;;
22632;SDS011;11483;55.828;37.488;2023-06-26T04:49:41;22.33;;;11.40;;
22632;SDS011;11483;55.828;37.488;2023-06-26T04:52:11;22.77;;;10.40;;
22632;SDS011;11483;55.828;37.488;2023-06-26T04:54:38;24.48;;;10.80;;
22632;SDS011;11483;55.828;37.488;2023-06-26T04:57:05;20.23;;;10.13;;
22632;SDS011;11483;55.828;37.488;2023-06-26T04:59:31;26.50;;;9.98;;
22632;SDS011;11483;55.828;37.488;2023-06-26T05:01:57;22.95;;;9.95;;
22632;SDS011;11483;55.828;37.488;2023-06-26T05:04:23;17.20;;;9.18;;
22632;SDS011;11483;55.828;37.488;2023-06-26T05:06:48;16.80;;;8.38;;
22632;SDS011;11483;55.828;37.488;2023-06-26T05:09:14;17.10;;;7.70;;
22632;SDS011;11483;55.828;37.488;2023-06-26T05:11:40;14.95;;;7.72;;
22632;SDS011;11483;55.828;37.488;2023-06-26T05:14:06;14.93;;;7.70;;
22632;SDS011;11483;55.828;37.488;2023-06-26T05:16:32;15.52;;;8.05;;
22632;SDS011;11483;55.828;37.488;2023-06-26T05:18:59;15.65;;;8.48;;
22632;SDS011;11483;55.828;37.488;2023-06-26T05:21:25;14.25;;;8.02;;
22632;SDS011;11483;55.828;37.488;2023-06-26T05:23:51;15.32;;;8.02;;
22632;SDS011;11483;55.828;37.488;2023-06-26T05:26:21;13.40;;;7.30;;
22632;SDS011;11483;55.828;37.488;2023-06-26T05:28:47;13.15;;;7.25;;
22632;SDS011;11483;55.828;37.488;2023-06-26T05:31:14;12.07;;;7.10;;
22632;SDS011;11483;55.828;37.488;2023-06-26T05:33:42;14.00;;;6.95;;
22632;SDS011;11483;55.828;37.488;2023-06-26T05:36:10;11.45;;;6.43;;
22632;SDS011;11483;55.828;37.488;2023-06-26T05:38:38;15.10;;;6.32;;
22632;SDS011;11483;55.828;37.488;2023-06-26T05:41:04;11.88;;;6.00;;
22632;SDS011;11483;55.828;37.488;2023-06-26T05:43:30;12.85;;;6.53;;
22632;SDS011;11483;55.828;37.488;2023-06-26T05:45:56;13.15;;;6.45;;
22632;SDS011;11483;55.828;37.488;2023-06-26T05:48:25;12.15;;;6.43;;
22632;SDS011;11483;55.828;37.488;2023-06-26T05:50:51;8.95;;;5.80;;
22632;SDS011;11483;55.828;37.488;2023-06-26T05:53:17;8.88;;;6.15;;
22632;SDS011;11483;55.828;37.488;2023-06-26T05:55:43;12.00;;;6.95;;
22632;SDS011;11483;55.828;37.488;2023-06-26T05:58:09;10.02;;;5.82;;
22632;SDS011;11483;55.828;37.488;2023-06-26T06:00:36;9.05;;;5.80;;
22632;SDS011;11483;55.828;37.488;2023-06-26T06:03:03;11.63;;;5.75;;
22632;SDS011;11483;55.828;37.488;2023-06-26T06:05:28;10.50;;;5.65;;
22632;SDS011;11483;55.828;37.488;2023-06-26T06:07:54;11.70;;;5.95;;
22632;SDS011;11483;55.828;37.488;2023-06-26T06:10:20;11.02;;;6.07;;
22632;SDS011;11483;55.828;37.488;2023-06-26T06:12:46;14.85;;;5.72;;
22632;SDS011;11483;55.828;37.488;2023-06-26T06:15:12;10.55;;;5.57;;
22632;SDS011;11483;55.828;37.488;2023-06-26T06:17:37;7.93;;;5.15;;
22632;SDS011;11483;55.828;37.488;2023-06-26T06:20:03;8.05;;;5.20;;
22632;SDS011;11483;55.828;37.488;2023-06-26T06:22:30;14.35;;;5.93;;
22632;SDS011;11483;55.828;37.488;2023-06-26T06:24:55;11.13;;;6.13;;
22632;SDS011;11483;55.828;37.488;2023-06-26T06:27:21;11.40;;;6.57;;
22632;SDS011;11483;55.828;37.488;2023-06-26T06:29:48;11.10;;;6.15;;
22632;SDS011;11483;55.828;37.488;2023-06-26T06:32:14;10.38;;;5.53;;
22632;SDS011;11483;55.828;37.488;2023-06-26T06:34:40;10.35;;;5.88;;
22632;SDS011;11483;55.828;37.488;2023-06-26T06:37:05;7.63;;;5.00;;
22632;SDS011;11483;55.828;37.488;2023-06-26T06:39:32;8.68;;;5.10;;
22632;SDS011;11483;55.828;37.488;2023-06-26T06:41:57;9.45;;;5.30;;
22632;SDS011;11483;55.828;37.488;2023-06-26T06:44:23;9.75;;;4.65;;
22632;SDS011;11483;55.828;37.488;2023-06-26T06:46:49;8.80;;;4.55;;
22632;SDS011;11483;55.828;37.488;2023-06-26T06:49:15;12.98;;;5.78;;
22632;SDS011;11483;55.828;37.488;2023-06-26T06:51:41;7.50;;;4.53;;
22632;SDS011;11483;55.828;37.488;2023-06-26T06:54:06;7.63;;;5.07;;
22632;SDS011;11483;55.828;37.488;2023-06-26T06:56:32;8.23;;;5.28;;
22632;SDS011;11483;55.828;37.488;2023-06-26T06:58:58;7.13;;;4.65;;
22632;SDS011;11483;55.828;37.488;2023-06-26T07:01:24;8.10;;;4.70;;
22632;SDS011;11483;55.828;37.488;2023-06-26T07:03:50;9.02;;;5.22;;
22632;SDS011;11483;55.828;37.488;2023-06-26T07:06:16;8.60;;;5.28;;
22632;SDS011;11483;55.828;37.488;2023-06-26T07:08:42;6.88;;;4.65;;
22632;SDS011;11483;55.828;37.488;2023-06-26T07:11:07;10.30;;;5.28;;
22632;SDS011;11483;55.828;37.488;2023-06-26T07:13:33;12.23;;;5.00;;
22632;SDS011;11483;55.828;37.488;2023-06-26T07:15:59;16.23;;;4.68;;
22632;SDS011;11483;55.828;37.488;2023-06-26T07:18:25;8.68;;;4.20;;
22632;SDS011;11483;55.828;37.488;2023-06-26T07:20:51;7.18;;;4.78;;
22632;SDS011;11483;55.828;37.488;2023-06-26T07:23:16;9.73;;;4.63;;
22632;SDS011;11483;55.828;37.488;2023-06-26T07:25:42;8.85;;;4.47;;
22632;SDS011;11483;55.828;37.488;2023-06-26T07:28:11;7.53;;;4.97;;
22632;SDS011;11483;55.828;37.488;2023-06-26T07:30:38;10.43;;;4.93;;
22632;SDS011;11483;55.828;37.488;2023-06-26T07:33:04;7.50;;;4.88;;
22632;SDS011;11483;55.828;37.488;2023-06-26T07:35:30;6.78;;;4.03;;
22632;SDS011;11483;55.828;37.488;2023-06-26T07:37:56;11.00;;;5.20;;
22632;SDS011;11483;55.828;37.488;2023-06-26T07:40:22;11.23;;;5.43;;
22632;SDS011;11483;55.828;37.488;2023-06-26T07:42:47;18.75;;;5.15;;
22632;SDS011;11483;55.828;37.488;2023-06-26T07:45:14;10.82;;;5.53;;
22632;SDS011;11483;55.828;37.488;2023-06-26T07:47:40;7.15;;;4.25;;
22632;SDS011;11483;55.828;37.488;2023-06-26T07:50:06;9.35;;;5.22;;
22632;SDS011;11483;55.828;37.488;2023-06-26T07:52:32;7.45;;;4.75;;
22632;SDS011;11483;55.828;37.488;2023-06-26T07:54:58;8.50;;;5.18;;
22632;SDS011;11483;55.828;37.488;2023-06-26T07:57:24;7.07;;;4.80;;
22632;SDS011;11483;55.828;37.488;2023-06-26T07:59:50;12.98;;;5.57;;
22632;SDS011;11483;55.828;37.488;2023-06-26T08:02:16;11.73;;;4.72;;
22632;SDS011;11483;55.828;37.488;2023-06-26T08:04:43;8.40;;;4.57;;
22632;SDS011;11483;55.828;37.488;2023-06-26T08:07:09;10.82;;;5.65;;
22632;SDS011;11483;55.828;37.488;2023-06-26T08:09:35;7.53;;;4.55;;
22632;SDS011;11483;55.828;37.488;2023-06-26T08:12:01;10.23;;;4.57;;
22632;SDS011;11483;55.828;37.488;2023-06-26T08:14:27;9.38;;;4.82;;
22632;SDS011;11483;55.828;37.488;2023-06-26T08:16:53;10.35;;;4.80;;
22632;SDS011;11483;55.828;37.488;2023-06-26T08:19:19;9.02;;;4.78;;
22632;SDS011;11483;55.828;37.488;2023-06-26T08:21:45;9.45;;;5.03;;
22632;SDS011;11483;55.828;37.488;2023-06-26T08:24:12;7.75;;;4.80;;
22632;SDS011;11483;55.828;37.488;2023-06-26T08:26:38;11.23;;;5.50;;
22632;SDS011;11483;55.828;37.488;2023-06-26T08:29:04;10.07;;;5.00;;
22632;SDS011;11483;55.828;37.488;2023-06-26T08:31:36;9.85;;;4.88;;
22632;SDS011;11483;55.828;37.488;2023-06-26T08:34:03;8.05;;;5.43;;
22632;SDS011;11483;55.828;37.488;2023-06-26T08:36:29;14.52;;;4.82;;
22632;SDS011;11483;55.828;37.488;2023-06-26T08:38:56;10.68;;;4.32;;
22632;SDS011;11483;55.828;37.488;2023-06-26T08:41:22;7.63;;;5.03;;
22632;SDS011;11483;55.828;37.488;2023-06-26T08:43:48;9.63;;;4.95;;
22632;SDS011;11483;55.828;37.488;2023-06-26T08:46:16;10.73;;;5.47;;
22632;SDS011;11483;55.828;37.488;2023-06-26T08:48:44;9.35;;;5.50;;
22632;SDS011;11483;55.828;37.488;2023-06-26T08:51:15;12.30;;;4.82;;
22632;SDS011;11483;55.828;37.488;2023-06-26T08:53:47;6.30;;;4.90;;
22632;SDS011;11483;55.828;37.488;2023-06-26T08:56:20;11.05;;;4.93;;
22632;SDS011;11483;55.828;37.488;2023-06-26T08:58:48;17.45;;;4.60;;
22632;SDS011;11483;55.828;37.488;2023-06-26T09:01:15;7.78;;;4.90;;
22632;SDS011;11483;55.828;37.488;2023-06-26T09:03:42;10.55;;;5.63;;
22632;SDS011;11483;55.828;37.488;2023-06-26T09:06:08;6.78;;;4.65;;
22632;SDS011;11483;55.828;37.488;2023-06-26T09:08:37;13.07;;;4.82;;
22632;SDS011;11483;55.828;37.488;2023-06-26T09:11:04;7.63;;;5.00;;
22632;SDS011;11483;55.828;37.488;2023-06-26T09:13:30;6.82;;;5.03;;
22632;SDS011;11483;55.828;37.488;2023-06-26T09:15:56;7.13;;;5.10;;
22632;SDS011;11483;55.828;37.488;2023-06-26T09:18:23;12.55;;;5.10;;
22632;SDS011;11483;55.828;37.488;2023-06-26T09:20:49;17.25;;;5.47;;
22632;SDS011;11483;55.828;37.488;2023-06-26T09:23:16;9.88;;;4.85;;
22632;SDS011;11483;55.828;37.488;2023-06-26T09:25:42;10.60;;;5.05;;
22632;SDS011;11483;55.828;37.488;2023-06-26T09:28:09;9.75;;;5.28;;
22632;SDS011;11483;55.828;37.488;2023-06-26T09:30:36;9.23;;;4.90;;
22632;SDS011;11483;55.828;37.488;2023-06-26T09:33:15;8.15;;;4.57;;
22632;SDS011;11483;55.828;37.488;2023-06-26T09:35:45;10.80;;;4.75;;
22632;SDS011;11483;55.828;37.488;2023-06-26T09:38:12;11.07;;;4.82;;
22632;SDS011;11483;55.828;37.488;2023-06-26T09:40:39;14.27;;;5.75;;
22632;SDS011;11483;55.828;37.488;2023-06-26T09:43:06;9.07;;;5.82;;
22632;SDS011;11483;55.828;37.488;2023-06-26T09:45:34;9.25;;;5.13;;
22632;SDS011;11483;55.828;37.488;2023-06-26T09:48:03;10.10;;;4.97;;
22632;SDS011;11483;55.828;37.488;2023-06-26T09:50:30;8.23;;;5.03;;
22632;SDS011;11483;55.828;37.488;2023-06-26T09:53:12;7.72;;;4.97;;
22632;SDS011;11483;55.828;37.488;2023-06-26T09:55:38;9.80;;;5.00;;
22632;SDS011;11483;55.828;37.488;2023-06-26T09:58:09;11.57;;;5.50;;
22632;SDS011;11483;55.828;37.488;2023-06-26T10:00:39;16.02;;;6.10;;
22632;SDS011;11483;55.828;37.488;2023-06-26T10:03:07;11.60;;;5.82;;
22632;SDS011;11483;55.828;37.488;2023-06-26T10:05:33;11.13;;;6.03;;
22632;SDS011;11483;55.828;37.488;2023-06-26T10:08:00;9.35;;;5.28;;
22632;SDS011;11483;55.828;37.488;2023-06-26T10:10:27;10.63;;;6.00;;
22632;SDS011;11483;55.828;37.488;2023-06-26T10:12:54;10.85;;;5.90;;
22632;SDS011;11483;55.828;37.488;2023-06-26T10:15:26;10.25;;;5.47;;
22632;SDS011;11483;55.828;37.488;2023-06-26T10:17:55;8.60;;;5.47;;
22632;SDS011;11483;55.828;37.488;2023-06-26T10:20:22;8.57;;;5.20;;
22632;SDS011;11483;55.828;37.488;2023-06-26T10:22:49;8.00;;;5.20;;
22632;SDS011;11483;55.828;37.488;2023-06-26T10:25:19;18.88;;;5.60;;
22632;SDS011;11483;55.828;37.488;2023-06-26T10:27:56;10.50;;;6.00;;
22632;SDS011;11483;55.828;37.488;2023-06-26T10:30:26;8.77;;;5.35;;
22632;SDS011;11483;55.828;37.488;2023-06-26T10:32:54;8.93;;;4.80;;
22632;SDS011;11483;55.828;37.488;2023-06-26T10:35:20;16.20;;;4.93;;
22632;SDS011;11483;55.828;37.488;2023-06-26T10:37:48;10.75;;;4.78;;
22632;SDS011;11483;55.828;37.488;2023-06-26T10:40:20;9.60;;;4.78;;
22632;SDS011;11483;55.828;37.488;2023-06-26T10:43:09;11.63;;;5.47;;
22632;SDS011;11483;55.828;37.488;2023-06-26T10:45:36;7.05;;;4.45;;
22632;SDS011;11483;55.828;37.488;2023-06-26T10:48:07;11.60;;;4.63;;
22632;SDS011;11483;55.828;37.488;2023-06-26T10:50:33;8.07;;;4.80;;
22632;SDS011;11483;55.828;37.488;2023-06-26T10:55:48;9.18;;;4.82;;
22632;SDS011;11483;55.828;37.488;2023-06-26T10:58:31;11.10;;;4.85;;
22632;SDS011;11483;55.828;37.488;2023-06-26T11:03:48;7.35;;;4.55;;
22632;SDS011;11483;55.828;37.488;2023-06-26T11:06:28;5.30;;;4.15;;
22632;SDS011;11483;55.828;37.488;2023-06-26T11:14:23;8.40;;;4.07;;
22632;SDS011;11483;55.828;37.488;2023-06-26T11:16:52;9.05;;;5.50;;
22632;SDS011;11483;55.828;37.488;2023-06-26T11:19:20;6.57;;;4.57;;
22632;SDS011;11483;55.828;37.488;2023-06-26T11:21:46;6.78;;;4.47;;
22632;SDS011;11483;55.828;37.488;2023-06-26T11:24:12;7.72;;;4.63;;
22632;SDS011;11483;55.828;37.488;2023-06-26T11:26:39;7.78;;;4.78;;
22632;SDS011;11483;55.828;37.488;2023-06-26T11:29:06;9.65;;;4.30;;
22632;SDS011;11483;55.828;37.488;2023-06-26T11:31:33;10.25;;;5.22;;
22632;SDS011;11483;55.828;37.488;2023-06-26T11:34:10;10.07;;;4.38;;
22632;SDS011;11483;55.828;37.488;2023-06-26T11:36:38;7.32;;;4.70;;
22632;SDS011;11483;55.828;37.488;2023-06-26T11:39:05;8.10;;;4.78;;
22632;SDS011;11483;55.828;37.488;2023-06-26T11:41:32;11.23;;;4.13;;
22632;SDS011;11483;55.828;37.488;2023-06-26T11:44:02;6.80;;;4.20;;
22632;SDS011;11483;55.828;37.488;2023-06-26T11:46:29;6.22;;;4.13;;
22632;SDS011;11483;55.828;37.488;2023-06-26T11:48:56;6.70;;;4.40;;
22632;SDS011;11483;55.828;37.488;2023-06-26T11:51:22;12.18;;;7.60;;
22632;SDS011;11483;55.828;37.488;2023-06-26T11:53:49;7.03;;;4.93;;
22632;SDS011;11483;55.828;37.488;2023-06-26T11:56:16;7.60;;;4.32;;
22632;SDS011;11483;55.828;37.488;2023-06-26T12:01:26;6.75;;;4.70;;
22632;SDS011;11483;55.828;37.488;2023-06-26T12:03:58;11.27;;;5.20;;
22632;SDS011;11483;55.828;37.488;2023-06-26T12:06:29;8.02;;;4.65;;
22632;SDS011;11483;55.828;37.488;2023-06-26T12:08:57;10.27;;;5.32;;
22632;SDS011;11483;55.828;37.488;2023-06-26T12:11:25;7.78;;;4.47;;
22632;SDS011;11483;55.828;37.488;2023-06-26T12:13:53;13.90;;;4.82;;
22632;SDS011;11483;55.828;37.488;2023-06-26T12:16:20;6.63;;;4.47;;
22632;SDS011;11483;55.828;37.488;2023-06-26T12:18:46;7.28;;;4.45;;
22632;SDS011;11483;55.828;37.488;2023-06-26T12:24:03;7.07;;;4.22;;
22632;SDS011;11483;55.828;37.488;2023-06-26T12:26:30;10.82;;;4.07;;
22632;SDS011;11483;55.828;37.488;2023-06-26T12:29:04;9.55;;;4.35;;
22632;SDS011;11483;55.828;37.488;2023-06-26T12:31:34;6.68;;;4.45;;
22632;SDS011;11483;55.828;37.488;2023-06-26T12:34:08;9.70;;;4.40;;
22632;SDS011;11483;55.828;37.488;2023-06-26T12:36:39;6.72;;;4.22;;
22632;SDS011;11483;55.828;37.488;2023-06-26T12:39:21;12.52;;;4.72;;
22632;SDS011;11483;55.828;37.488;2023-06-26T12:41:48;8.90;;;4.22;;
22632;SDS011;11483;55.828;37.488;2023-06-26T12:44:20;9.73;;;4.72;;
22632;SDS011;11483;55.828;37.488;2023-06-26T12:46:54;8.43;;;4.60;;
22632;SDS011;11483;55.828;37.488;2023-06-26T12:51:59;9.40;;;4.68;;
22632;SDS011;11483;55.828;37.488;2023-06-26T12:54:26;7.38;;;4.68;;
22632;SDS011;11483;55.828;37.488;2023-06-26T12:56:53;12.20;;;4.43;;
22632;SDS011;11483;55.828;37.488;2023-06-26T12:59:19;8.05;;;4.82;;
22632;SDS011;11483;55.828;37.488;2023-06-26T13:01:46;7.95;;;4.43;;
22632;SDS011;11483;55.828;37.488;2023-06-26T13:04:12;6.15;;;4.13;;
22632;SDS011;11483;55.828;37.488;2023-06-26T13:06:37;16.30;;;10.35;;
22632;SDS011;11483;55.828;37.488;2023-06-26T13:09:03;13.07;;;7.22;;
22632;SDS011;11483;55.828;37.488;2023-06-26T13:11:30;9.63;;;4.60;;
22632;SDS011;11483;55.828;37.488;2023-06-26T13:13:56;11.60;;;4.45;;
22632;SDS011;11483;55.828;37.488;2023-06-26T13:16:22;6.32;;;4.03;;
22632;SDS011;11483;55.828;37.488;2023-06-26T13:18:48;7.55;;;4.20;;
22632;SDS011;11483;55.828;37.488;2023-06-26T13:21:16;7.70;;;4.50;;
22632;SDS011;11483;55.828;37.488;2023-06-26T13:23:45;8.00;;;4.72;;
22632;SDS011;11483;55.828;37.488;2023-06-26T13:26:11;9.68;;;4.15;;
22632;SDS011;11483;55.828;37.488;2023-06-26T13:28:37;12.77;;;4.25;;
22632;SDS011;11483;55.828;37.488;2023-06-26T13:31:03;9.38;;;4.30;;
22632;SDS011;11483;55.828;37.488;2023-06-26T13:33:30;5.35;;;4.43;;
22632;SDS011;11483;55.828;37.488;2023-06-26T13:35:56;7.50;;;5.25;;
22632;SDS011;11483;55.828;37.488;2023-06-26T13:38:23;11.95;;;5.43;;
22632;SDS011;11483;55.828;37.488;2023-06-26T13:40:51;16.15;;;4.57;;
22632;SDS011;11483;55.828;37.488;2023-06-26T13:43:17;8.77;;;4.50;;
22632;SDS011;11483;55.828;37.488;2023-06-26T13:45:43;7.10;;;4.78;;
22632;SDS011;11483;55.828;37.488;2023-06-26T13:48:09;10.80;;;4.80;;
22632;SDS011;11483;55.828;37.488;2023-06-26T13:50:35;10.82;;;4.57;;
22632;SDS011;11483;55.828;37.488;2023-06-26T13:53:01;8.65;;;4.60;;
22632;SDS011;11483;55.828;37.488;2023-06-26T13:55:27;8.48;;;4.80;;
22632;SDS011;11483;55.828;37.488;2023-06-26T13:57:53;14.35;;;5.20;;
22632;SDS011;11483;55.828;37.488;2023-06-26T14:00:21;11.20;;;5.07;;
22632;SDS011;11483;55.828;37.488;2023-06-26T14:02:47;8.90;;;4.68;;
22632;SDS011;11483;55.828;37.488;2023-06-26T14:05:13;10.95;;;4.60;;
22632;SDS011;11483;55.828;37.488;2023-06-26T14:07:39;17.40;;;5.15;;
22632;SDS011;11483;55.828;37.488;2023-06-26T14:10:05;10.10;;;4.90;;
22632;SDS011;11483;55.828;37.488;2023-06-26T14:12:32;10.60;;;4.82;;
22632;SDS011;11483;55.828;37.488;2023-06-26T14:14:58;6.43;;;4.25;;
22632;SDS011;11483;55.828;37.488;2023-06-26T14:17:24;9.95;;;4.38;;
22632;SDS011;11483;55.828;37.488;2023-06-26T14:19:53;7.57;;;4.88;;
22632;SDS011;11483;55.828;37.488;2023-06-26T14:22:19;7.63;;;4.70;;
22632;SDS011;11483;55.828;37.488;2023-06-26T14:24:46;10.23;;;4.95;;
22632;SDS011;11483;55.828;37.488;2023-06-26T14:27:13;7.95;;;4.22;;
22632;SDS011;11483;55.828;37.488;2023-06-26T14:29:39;12.90;;;4.90;;
22632;SDS011;11483;55.828;37.488;2023-06-26T14:32:05;7.00;;;4.97;;
22632;SDS011;11483;55.828;37.488;2023-06-26T14:34:32;11.88;;;5.72;;
22632;SDS011;11483;55.828;37.488;2023-06-26T14:36:58;8.93;;;6.45;;
22632;SDS011;11483;55.828;37.488;2023-06-26T14:39:24;24.38;;;10.43;;
22632;SDS011;11483;55.828;37.488;2023-06-26T14:44:15;8.03;;;4.50;;
22632;SDS011;11483;55.828;37.488;2023-06-26T14:46:41;7.15;;;4.20;;
22632;SDS011;11483;55.828;37.488;2023-06-26T14:49:08;6.60;;;4.60;;